Time;durP1;ratioP1;P1;durP2;ratioP2;P2;SDS_P1;SDS_P2;PMS_P1;PMS_P2;Temp;Humidity;BMP_temperature;BMP_pressure;BME280_temperature;BME280_humidity;BME280_pressure;Samples;Min_cycle;Max_cycle;Signal;HPM_P1;HPM_P2
2023/04/02 08:22:34;;;;;;;0.30;0.30;;;;;;;;;;7403849;19;20480;-88
2023/04/02 08:25:01;;;;;;;0.30;0.30;;;;;;;;;;7403338;19;20137;-87
2023/04/02 08:27:27;;;;;;;0.20;0.20;;;;;;;;;;7400695;19;20137;-92
2023/04/02 08:29:54;;;;;;;0.30;0.30;;;;;;;;;;7399954;19;20153;-88
2023/04/02 08:32:21;;;;;;;0.30;0.30;;;;;;;;;;7401983;19;20145;-89
2023/04/02 08:34:48;;;;;;;0.30;0.30;;;;;;;;;;7397393;19;20137;-91
2023/04/02 08:37:15;;;;;;;0.30;0.30;;;;;;;;;;7396086;19;20168;-90
2023/04/02 08:39:41;;;;;;;0.30;0.30;;;;;;;;;;7398516;19;20161;-89
2023/04/02 08:42:29;;;;;;;0.30;0.30;;;;;;;;;;7397330;19;20133;-91
2023/04/02 08:45:20;;;;;;;0.30;0.30;;;;;;;;;;7396545;19;20153;-91
2023/04/02 08:47:54;;;;;;;0.30;0.30;;;;;;;;;;7397477;19;20152;-91
2023/04/02 08:50:31;;;;;;;0.43;0.43;;;;;;;;;;7393652;19;20510;-91
2023/04/02 08:53:01;;;;;;;0.20;0.20;;;;;;;;;;7395704;19;20147;-91
2023/04/02 08:55:41;;;;;;;0.30;0.30;;;;;;;;;;7393039;19;20196;-89
2023/04/02 08:58:31;;;;;;;0.37;0.37;;;;;;;;;;7394215;19;20365;-89
2023/04/02 09:01:01;;;;;;;11.90;0.57;;;;;;;;;;7397485;19;20160;-89
2023/04/02 09:03:39;;;;;;;0.20;0.20;;;;;;;;;;7393395;19;20145;-91
2023/04/02 09:06:08;;;;;;;0.30;0.30;;;;;;;;;;7396633;19;20254;-90
2023/04/02 12:07:03;;;;;;;0.20;0.20;;;;;;;;;;7407316;19;20529;-87
2023/04/02 12:09:43;;;;;;;0.30;0.30;;;;;;;;;;7401287;19;20140;-87
2023/04/02 12:12:25;;;;;;;0.30;0.30;;;;;;;;;;7404475;19;20589;-90
2023/04/02 12:14:56;;;;;;;0.25;0.25;;;;;;;;;;7403229;19;20144;-87
2023/04/02 12:17:35;;;;;;;0.30;0.30;;;;;;;;;;7408632;19;20137;-87
2023/04/02 12:20:08;;;;;;;0.30;0.30;;;;;;;;;;7409489;19;20149;-86
2023/04/02 12:22:38;;;;;;;0.30;0.30;;;;;;;;;;7408554;19;20503;-86
2023/04/02 12:25:38;;;;;;;0.30;0.30;;;;;;;;;;7411318;19;20152;-85
2023/04/02 12:28:08;;;;;;;0.50;0.50;;;;;;;;;;7431831;19;20148;-88
2023/04/02 12:30:36;;;;;;;0.30;0.30;;;;;;;;;;7432826;19;20542;-89
2023/04/02 12:33:32;;;;;;;0.30;0.30;;;;;;;;;;7432697;19;20141;-89
2023/04/02 12:36:00;;;;;;;0.30;0.30;;;;;;;;;;7430599;19;20129;-88
2023/04/02 12:38:29;;;;;;;1.08;1.05;;;;;;;;;;7426326;19;20133;-87
2023/04/02 12:41:04;;;;;;;0.65;0.60;;;;;;;;;;7428095;19;20193;-87
2023/04/02 12:43:35;;;;;;;0.30;0.30;;;;;;;;;;7429601;19;20149;-88
2023/04/02 12:46:19;;;;;;;0.95;0.68;;;;;;;;;;7424223;19;20176;-87
2023/04/02 12:48:45;;;;;;;0.30;0.30;;;;;;;;;;7419500;19;20260;-86
2023/04/02 12:51:12;;;;;;;0.50;0.50;;;;;;;;;;7405935;19;20153;-87
2023/04/02 12:53:40;;;;;;;0.47;0.38;;;;;;;;;;7411069;19;20128;-86
2023/04/02 12:56:07;;;;;;;0.40;0.40;;;;;;;;;;7407043;19;20600;-87
2023/04/02 12:58:38;;;;;;;0.30;0.30;;;;;;;;;;7402784;19;20165;-85
2023/04/02 13:01:09;;;;;;;0.30;0.30;;;;;;;;;;7403941;19;20637;-86
2023/04/02 13:03:36;;;;;;;0.50;0.50;;;;;;;;;;7403923;19;20145;-86
2023/04/02 13:06:18;;;;;;;0.30;0.30;;;;;;;;;;7403612;19;20153;-87
2023/04/02 13:08:45;;;;;;;0.25;0.25;;;;;;;;;;7404513;19;20779;-88
2023/04/02 13:11:11;;;;;;;0.30;0.30;;;;;;;;;;7401090;19;20169;-85
2023/04/02 13:13:40;;;;;;;0.30;0.30;;;;;;;;;;7404914;19;20137;-85
2023/04/02 13:16:27;;;;;;;0.30;0.30;;;;;;;;;;7406030;19;20157;-85
2023/04/02 13:19:20;;;;;;;0.30;0.30;;;;;;;;;;7406063;19;20771;-86
2023/04/02 13:21:48;;;;;;;0.30;0.30;;;;;;;;;;7406509;19;20151;-86
2023/04/02 13:24:26;;;;;;;0.30;0.30;;;;;;;;;;7402435;19;20152;-85
2023/04/02 13:26:56;;;;;;;0.30;0.30;;;;;;;;;;7403447;19;20133;-89
2023/04/02 13:29:27;;;;;;;0.50;0.50;;;;;;;;;;7402880;19;20609;-88
2023/04/02 13:32:00;;;;;;;0.68;0.68;;;;;;;;;;7402500;19;20156;-90
2023/04/02 13:34:27;;;;;;;0.30;0.30;;;;;;;;;;7398922;19;20137;-86
2023/04/02 13:36:54;;;;;;;0.47;0.47;;;;;;;;;;7400372;19;20148;-85
2023/04/02 13:39:20;;;;;;;0.40;0.40;;;;;;;;;;7404885;19;20168;-86
2023/04/02 13:41:55;;;;;;;0.30;0.30;;;;;;;;;;7408836;19;20158;-86
2023/04/02 13:44:32;;;;;;;0.30;0.30;;;;;;;;;;7427240;19;20180;-93
2023/04/02 13:52:16;;;;;;;0.45;0.45;;;;;;;;;;7422352;19;20157;-90
2023/04/02 13:54:47;;;;;;;0.50;0.50;;;;;;;;;;7407669;19;20743;-91
2023/04/02 13:57:14;;;;;;;0.32;0.32;;;;;;;;;;7398007;19;20594;-90
2023/04/02 13:59:41;;;;;;;0.30;0.30;;;;;;;;;;7397331;19;20226;-90
2023/04/02 14:02:15;;;;;;;0.30;0.30;;;;;;;;;;7395782;19;20504;-91
2023/04/02 14:04:47;;;;;;;0.30;0.30;;;;;;;;;;7398813;19;20140;-91
2023/04/02 14:07:19;;;;;;;0.30;0.30;;;;;;;;;;7399190;19;20133;-90
2023/04/02 14:10:03;;;;;;;0.30;0.30;;;;;;;;;;7397367;19;20163;-90
2023/04/02 14:12:40;;;;;;;0.30;0.30;;;;;;;;;;7397856;19;20618;-90
2023/04/02 14:15:29;;;;;;;0.30;0.30;;;;;;;;;;7399606;19;20140;-93
2023/04/02 14:18:18;;;;;;;0.30;0.30;;;;;;;;;;7404526;19;20484;-94
2023/04/02 14:20:52;;;;;;;0.20;0.20;;;;;;;;;;7401967;19;20168;-93
2023/04/02 14:23:40;;;;;;;0.40;0.40;;;;;;;;;;7404145;19;20143;-93
2023/04/02 14:26:21;;;;;;;0.30;0.30;;;;;;;;;;7403476;19;20161;-93
2023/04/02 14:29:00;;;;;;;0.45;0.45;;;;;;;;;;7408300;19;20148;-95
2023/04/02 14:31:39;;;;;;;0.30;0.30;;;;;;;;;;7404612;19;20160;-94
2023/04/02 14:34:42;;;;;;;0.30;0.30;;;;;;;;;;7407526;19;20144;-92
2023/04/02 14:37:09;;;;;;;0.30;0.30;;;;;;;;;;7406828;19;20145;-94
2023/04/02 14:40:24;;;;;;;0.30;0.30;;;;;;;;;;7409968;19;20148;-93
2023/04/02 14:43:06;;;;;;;0.30;0.30;;;;;;;;;;7413103;19;20153;-94
2023/04/02 17:09:09;;;;;;;0.35;0.35;;;;;;;;;;7399223;19;20168;-92
2023/04/02 17:11:41;;;;;;;0.32;0.32;;;;;;;;;;7419386;19;20165;-92
2023/04/02 17:14:16;;;;;;;0.30;0.30;;;;;;;;;;7422931;19;20156;-92
2023/04/02 17:16:45;;;;;;;0.30;0.30;;;;;;;;;;7420097;19;20129;-92
2023/04/02 17:19:14;;;;;;;0.30;0.30;;;;;;;;;;7421368;19;20121;-92
2023/04/02 17:21:44;;;;;;;0.20;0.20;;;;;;;;;;7410260;19;20176;-92
2023/04/02 17:24:23;;;;;;;0.30;0.30;;;;;;;;;;7402408;19;20506;-92
2023/04/02 17:26:53;;;;;;;0.30;0.30;;;;;;;;;;7395751;19;20643;-93
2023/04/02 17:29:38;;;;;;;0.30;0.30;;;;;;;;;;7396442;19;20157;-93
2023/04/02 17:32:13;;;;;;;0.32;0.32;;;;;;;;;;7392124;19;20177;-92
2023/04/02 17:34:40;;;;;;;0.57;0.50;;;;;;;;;;7386996;19;20133;-92
2023/04/02 17:37:33;;;;;;;0.40;0.40;;;;;;;;;;7383307;19;20141;-92
2023/04/02 17:40:32;;;;;;;0.30;0.30;;;;;;;;;;7391398;19;20172;-91
2023/04/02 17:43:05;;;;;;;0.60;0.60;;;;;;;;;;7407776;19;20245;-93
2023/04/02 17:45:40;;;;;;;0.63;0.57;;;;;;;;;;7399413;19;20129;-93
2023/04/02 17:48:11;;;;;;;0.30;0.30;;;;;;;;;;7394258;19;20136;-93
2023/04/02 17:50:59;;;;;;;0.20;0.20;;;;;;;;;;7392745;19;20160;-93
2023/04/02 17:53:44;;;;;;;0.20;0.20;;;;;;;;;;7397663;19;20640;-92
2023/04/02 17:56:28;;;;;;;0.30;0.30;;;;;;;;;;7393435;19;20137;-91
2023/04/02 17:59:20;;;;;;;0.30;0.30;;;;;;;;;;7390585;19;20144;-92
2023/04/02 18:01:59;;;;;;;0.27;0.27;;;;;;;;;;7394456;19;20173;-93
2023/04/02 18:04:45;;;;;;;0.30;0.30;;;;;;;;;;7393885;19;20133;-92
2023/04/02 18:07:14;;;;;;;0.30;0.30;;;;;;;;;;7396607;19;20172;-91
2023/04/02 18:10:06;;;;;;;0.27;0.27;;;;;;;;;;7389101;19;20133;-91
2023/04/02 18:13:06;;;;;;;0.30;0.30;;;;;;;;;;7389460;19;20478;-91
2023/04/02 18:15:49;;;;;;;0.50;0.50;;;;;;;;;;7389777;19;20873;-91
2023/04/02 18:18:25;;;;;;;0.30;0.30;;;;;;;;;;7389744;19;20132;-92
2023/04/02 18:21:10;;;;;;;0.30;0.30;;;;;;;;;;7389280;19;20168;-92
2023/04/02 18:23:53;;;;;;;0.27;0.27;;;;;;;;;;7391121;19;20136;-92
2023/04/02 18:26:38;;;;;;;0.30;0.30;;;;;;;;;;7392774;19;20146;-93
2023/04/02 18:30:12;;;;;;;;;;;;;;;;;;;;;
2023/04/02 18:33:31;;;;;;;0.30;0.30;;;;;;;;;;7402654;19;20128;-93
2023/04/02 19:17:03;;;;;;;0.20;0.20;;;;;;;;;;7394312;19;20152;-89
2023/04/02 19:19:37;;;;;;;0.30;0.30;;;;;;;;;;7394697;19;20137;-90
2023/04/02 19:22:10;;;;;;;0.30;0.30;;;;;;;;;;7388501;19;20233;-90
2023/04/02 19:24:46;;;;;;;0.40;0.40;;;;;;;;;;7394517;19;20160;-91
2023/04/02 19:27:37;;;;;;;0.23;0.23;;;;;;;;;;7395816;19;20136;-90
2023/04/02 19:30:41;;;;;;;0.33;0.33;;;;;;;;;;7390529;19;20181;-90
2023/04/02 19:33:25;;;;;;;0.33;0.33;;;;;;;;;;7394112;19;20159;-91
2023/04/02 19:36:03;;;;;;;0.30;0.30;;;;;;;;;;7389533;19;20593;-89
2023/04/02 19:38:47;;;;;;;0.30;0.30;;;;;;;;;;7391814;19;20674;-91
2023/04/02 19:41:32;;;;;;;0.30;0.30;;;;;;;;;;7387471;19;20149;-91
2023/04/02 19:43:59;;;;;;;0.30;0.30;;;;;;;;;;7391356;19;20129;-91
2023/04/02 19:46:26;;;;;;;0.30;0.30;;;;;;;;;;7391618;19;20137;-91
2023/04/02 19:49:02;;;;;;;0.30;0.30;;;;;;;;;;7397800;19;20157;-90
2023/04/02 19:51:29;;;;;;;0.20;0.20;;;;;;;;;;7394050;19;20144;-91
2023/04/02 19:53:55;;;;;;;0.30;0.30;;;;;;;;;;7396480;19;20165;-90
2023/04/02 19:56:22;;;;;;;0.20;0.20;;;;;;;;;;7399877;19;20450;-89
2023/04/02 19:58:49;;;;;;;0.20;0.20;;;;;;;;;;7399205;19;20165;-90
2023/04/02 20:01:15;;;;;;;0.30;0.30;;;;;;;;;;7397174;19;20526;-91
2023/04/02 20:03:42;;;;;;;0.30;0.30;;;;;;;;;;7398249;19;20600;-91
2023/04/02 20:06:09;;;;;;;0.27;0.27;;;;;;;;;;7397069;19;20125;-90
2023/04/02 20:08:37;;;;;;;0.30;0.30;;;;;;;;;;7397753;19;20136;-90
2023/04/02 20:11:04;;;;;;;0.30;0.30;;;;;;;;;;7399054;19;20148;-90
2023/04/02 20:13:32;;;;;;;0.30;0.30;;;;;;;;;;7396769;19;20162;-92
2023/04/02 20:16:00;;;;;;;0.30;0.30;;;;;;;;;;7399498;19;20510;-92
2023/04/02 20:18:27;;;;;;;0.20;0.20;;;;;;;;;;7394496;19;20566;-91
2023/04/02 20:20:54;;;;;;;0.33;0.33;;;;;;;;;;7405293;19;20145;-93
2023/04/02 20:23:33;;;;;;;0.30;0.30;;;;;;;;;;7402207;19;20141;-92
2023/04/02 20:26:02;;;;;;;0.37;0.37;;;;;;;;;;7414994;19;20748;-94
2023/04/02 20:28:29;;;;;;;0.47;0.47;;;;;;;;;;7420159;19;20137;-94
2023/04/02 20:31:13;;;;;;;0.30;0.30;;;;;;;;;;7406852;19;20173;-94
2023/04/02 20:33:40;;;;;;;0.30;0.30;;;;;;;;;;7411665;19;20145;-94
2023/04/02 20:36:10;;;;;;;0.30;0.30;;;;;;;;;;7408331;19;20170;-94
2023/04/02 20:38:37;;;;;;;0.30;0.30;;;;;;;;;;7403414;19;20137;-94
2023/04/02 20:41:05;;;;;;;0.57;0.57;;;;;;;;;;7404067;19;20654;-94
2023/04/02 20:43:32;;;;;;;0.30;0.30;;;;;;;;;;7409136;19;20600;-94
2023/04/02 20:46:03;;;;;;;0.30;0.30;;;;;;;;;;7406620;19;20494;-93
2023/04/02 20:48:31;;;;;;;0.30;0.30;;;;;;;;;;7406988;19;20133;-94
2023/04/02 20:50:59;;;;;;;0.23;0.23;;;;;;;;;;7406702;19;20176;-93
2023/04/02 20:53:28;;;;;;;0.30;0.30;;;;;;;;;;7413810;19;20151;-95
2023/04/02 20:56:06;;;;;;;0.30;0.30;;;;;;;;;;7426510;19;20151;-91
2023/04/02 20:58:34;;;;;;;0.50;0.50;;;;;;;;;;7424611;19;20133;-93
2023/04/02 21:01:11;;;;;;;0.30;0.30;;;;;;;;;;7412126;19;20157;-94
2023/04/02 21:03:38;;;;;;;0.30;0.30;;;;;;;;;;7411290;19;20147;-93
2023/04/02 21:06:11;;;;;;;0.30;0.30;;;;;;;;;;7407313;19;20165;-94
2023/04/02 21:08:39;;;;;;;0.30;0.30;;;;;;;;;;7402631;19;20150;-93
2023/04/02 21:11:07;;;;;;;0.30;0.30;;;;;;;;;;7404517;19;20172;-94
2023/04/02 21:13:35;;;;;;;0.43;0.43;;;;;;;;;;7410150;19;20145;-93
2023/04/02 21:16:03;;;;;;;0.30;0.30;;;;;;;;;;7412365;19;20157;-92
2023/04/02 21:18:31;;;;;;;0.30;0.30;;;;;;;;;;7411149;19;20129;-92
2023/04/02 21:21:03;;;;;;;0.30;0.30;;;;;;;;;;7415568;19;20157;-93
2023/04/02 21:23:30;;;;;;;0.30;0.30;;;;;;;;;;7421026;19;20140;-93
2023/04/02 21:26:03;;;;;;;0.30;0.30;;;;;;;;;;7406751;19;20165;-92
2023/04/02 21:28:29;;;;;;;0.30;0.30;;;;;;;;;;7409154;19;20133;-93
2023/04/02 21:31:11;;;;;;;0.30;0.30;;;;;;;;;;7409486;19;20204;-94
2023/04/02 21:33:43;;;;;;;0.40;0.40;;;;;;;;;;7413618;19;20152;-93
2023/04/02 21:36:12;;;;;;;0.40;0.40;;;;;;;;;;7413043;19;20524;-94
2023/04/02 21:38:43;;;;;;;0.20;0.20;;;;;;;;;;7414395;19;20137;-94
2023/04/02 21:41:17;;;;;;;0.30;0.30;;;;;;;;;;7417216;19;20185;-93
2023/04/02 21:43:47;;;;;;;0.30;0.30;;;;;;;;;;7417147;19;20681;-93
2023/04/02 21:46:19;;;;;;;0.50;0.50;;;;;;;;;;7417150;19;20141;-92
2023/04/02 21:48:47;;;;;;;0.30;0.30;;;;;;;;;;7412932;19;20137;-94
2023/04/02 21:51:20;;;;;;;0.30;0.30;;;;;;;;;;7411519;19;20552;-94
2023/04/02 21:53:47;;;;;;;0.30;0.30;;;;;;;;;;7417340;19;20546;-94
2023/04/02 21:56:16;;;;;;;0.30;0.30;;;;;;;;;;7414001;19;20141;-94
2023/04/02 21:58:45;;;;;;;0.30;0.30;;;;;;;;;;7412853;19;20165;-94
2023/04/02 22:01:13;;;;;;;0.20;0.20;;;;;;;;;;7418758;19;20163;-94
2023/04/02 22:03:53;;;;;;;0.20;0.20;;;;;;;;;;7418712;19;20152;-94
2023/04/02 22:06:21;;;;;;;0.20;0.20;;;;;;;;;;7412241;19;20607;-94
2023/04/02 22:08:56;;;;;;;0.30;0.30;;;;;;;;;;7416508;19;20133;-95
2023/04/02 22:11:25;;;;;;;0.30;0.30;;;;;;;;;;7408428;19;20652;-91
2023/04/02 22:13:52;;;;;;;0.20;0.20;;;;;;;;;;7408987;19;20137;-94
2023/04/02 22:16:21;;;;;;;0.40;0.40;;;;;;;;;;7414710;19;20169;-94
2023/04/02 22:18:50;;;;;;;0.20;0.20;;;;;;;;;;7412327;19;20181;-94
2023/04/02 22:21:17;;;;;;;0.30;0.30;;;;;;;;;;7409916;19;20197;-94
2023/04/02 22:23:44;;;;;;;0.30;0.30;;;;;;;;;;7407878;19;20144;-92
2023/04/02 22:26:12;;;;;;;0.30;0.30;;;;;;;;;;7397503;19;20141;-94
2023/04/02 22:28:39;;;;;;;0.40;0.40;;;;;;;;;;7404515;19;20144;-93
2023/04/02 22:31:10;;;;;;;0.30;0.30;;;;;;;;;;7403853;19;20157;-93
2023/04/02 22:33:37;;;;;;;0.30;0.30;;;;;;;;;;7402322;19;20161;-93
2023/04/02 22:36:04;;;;;;;0.40;0.40;;;;;;;;;;7405728;19;20182;-94
2023/04/02 22:38:31;;;;;;;0.67;0.67;;;;;;;;;;7407913;19;20141;-94
2023/04/02 22:41:12;;;;;;;0.30;0.30;;;;;;;;;;7404106;19;20168;-94
2023/04/02 22:43:41;;;;;;;0.30;0.30;;;;;;;;;;7401443;19;20154;-92
2023/04/02 22:46:10;;;;;;;0.20;0.20;;;;;;;;;;7400865;19;20145;-95
2023/04/02 22:48:39;;;;;;;0.30;0.30;;;;;;;;;;7399517;19;20142;-95
2023/04/02 22:51:08;;;;;;;0.40;0.40;;;;;;;;;;7403003;19;20192;-93
2023/04/02 22:53:35;;;;;;;0.40;0.40;;;;;;;;;;7412182;19;20132;-94
2023/04/02 22:56:09;;;;;;;0.30;0.30;;;;;;;;;;7394433;19;20149;-94
2023/04/02 22:58:37;;;;;;;0.20;0.20;;;;;;;;;;7392150;19;20144;-93
2023/04/02 23:01:05;;;;;;;1.23;0.53;;;;;;;;;;7391140;19;20168;-94
2023/04/02 23:03:32;;;;;;;0.30;0.30;;;;;;;;;;7390077;19;20197;-91
2023/04/02 23:06:00;;;;;;;0.30;0.30;;;;;;;;;;7391652;19;20140;-93
2023/04/02 23:08:27;;;;;;;0.30;0.30;;;;;;;;;;7391541;19;20136;-93
2023/04/02 23:11:11;;;;;;;0.30;0.30;;;;;;;;;;7390038;19;20161;-94
2023/04/02 23:13:39;;;;;;;0.30;0.30;;;;;;;;;;7393310;19;20157;-93
2023/04/02 23:16:07;;;;;;;0.57;0.57;;;;;;;;;;7389528;19;20169;-93
2023/04/02 23:18:35;;;;;;;0.40;0.40;;;;;;;;;;7390362;19;20516;-93
2023/04/02 23:21:04;;;;;;;0.40;0.40;;;;;;;;;;7390258;19;20173;-95
2023/04/02 23:23:31;;;;;;;0.30;0.30;;;;;;;;;;7399478;19;20235;-95
2023/04/02 23:26:30;;;;;;;0.40;0.40;;;;;;;;;;7397224;19;20141;-94
2023/04/02 23:28:58;;;;;;;0.23;0.23;;;;;;;;;;7399629;19;20249;-95
2023/04/02 23:31:25;;;;;;;0.40;0.40;;;;;;;;;;7403757;19;20677;-93
2023/04/02 23:33:52;;;;;;;0.30;0.30;;;;;;;;;;7405785;19;20144;-93
2023/04/02 23:36:37;;;;;;;0.43;0.43;;;;;;;;;;7404469;19;20137;-94
2023/04/02 23:39:08;;;;;;;0.30;0.30;;;;;;;;;;7405072;19;20145;-94
2023/04/02 23:41:36;;;;;;;0.70;0.70;;;;;;;;;;7401908;19;20166;-94
2023/04/02 23:44:03;;;;;;;0.30;0.30;;;;;;;;;;7400255;19;20165;-95
2023/04/02 23:46:31;;;;;;;0.40;0.40;;;;;;;;;;7404089;19;20161;-95
2023/04/02 23:48:58;;;;;;;0.30;0.30;;;;;;;;;;7406986;19;20136;-93
2023/04/02 23:51:26;;;;;;;0.50;0.50;;;;;;;;;;7400558;19;20153;-94
2023/04/02 23:53:56;;;;;;;0.53;0.53;;;;;;;;;;7403046;19;20126;-94
2023/04/02 23:56:23;;;;;;;0.30;0.30;;;;;;;;;;7401721;19;20161;-94
2023/04/02 23:58:50;;;;;;;0.27;0.27;;;;;;;;;;7404883;19;20133;-92
